Time;durP1;ratioP1;P1;durP2;ratioP2;P2;SDS_P1;SDS_P2;PMS_P1;PMS_P2;Temp;Humidity;BMP_temperature;BMP_pressure;BME280_temperature;BME280_humidity;BME280_pressure;Samples;Min_cycle;Max_cycle;Signal;HPM_P1;HPM_P2
2024/02/21 00:01:01;;;;;;;12.07;4.00;;;7.90;99.90;;;;;;5011377;28;20100;-72
2024/02/21 00:03:27;;;;;;;13.93;2.38;;;8.00;99.90;;;;;;5028482;28;20458;-72
2024/02/21 00:05:53;;;;;;;4.65;2.13;;;8.00;99.90;;;;;;5009848;28;20030;-73
2024/02/21 00:08:19;;;;;;;12.82;2.55;;;8.00;99.90;;;;;;5014806;28;20405;-71
2024/02/21 00:10:45;;;;;;;7.55;2.33;;;8.00;99.90;;;;;;4989652;28;20026;-72
2024/02/21 00:13:10;;;;;;;12.90;3.50;;;7.90;99.90;;;;;;5011975;28;20072;-71
2024/02/21 00:15:37;;;;;;;15.82;2.67;;;8.00;99.90;;;;;;5010796;28;20088;-72
2024/02/21 00:18:03;;;;;;;9.18;2.97;;;7.90;99.90;;;;;;4995626;28;20038;-71
2024/02/21 00:20:29;;;;;;;11.70;3.42;;;7.90;99.90;;;;;;4992434;28;20442;-71
2024/02/21 00:22:54;;;;;;;3.67;2.33;;;8.00;99.90;;;;;;5011585;28;20029;-72
2024/02/21 00:25:20;;;;;;;11.98;3.30;;;8.00;99.90;;;;;;5010728;28;20052;-72
2024/02/21 00:27:46;;;;;;;5.20;2.47;;;8.00;99.90;;;;;;4995549;28;20026;-73
2024/02/21 00:30:12;;;;;;;10.32;3.28;;;8.00;99.90;;;;;;4988408;28;20049;-72
2024/02/21 00:32:38;;;;;;;11.73;2.20;;;8.00;99.90;;;;;;4990927;28;20037;-72
2024/02/21 00:35:04;;;;;;;4.00;2.13;;;8.00;99.90;;;;;;4993428;28;20030;-72
2024/02/21 00:37:31;;;;;;;5.88;2.42;;;8.00;99.90;;;;;;4995305;28;20030;-72
2024/02/21 00:39:57;;;;;;;9.05;2.70;;;8.00;99.90;;;;;;5010792;28;20026;-72
2024/02/21 00:42:23;;;;;;;6.28;2.55;;;7.90;99.90;;;;;;5011564;28;20029;-72
2024/02/21 00:44:48;;;;;;;14.45;3.80;;;7.90;99.90;;;;;;4993541;28;20029;-73
2024/02/21 00:47:14;;;;;;;13.13;3.50;;;7.90;99.90;;;;;;4995377;28;20128;-72
2024/02/21 00:49:40;;;;;;;8.52;3.13;;;7.80;99.90;;;;;;4995059;28;20022;-72
2024/02/21 00:52:06;;;;;;;4.20;2.53;;;7.80;99.90;;;;;;4995292;28;20053;-72
2024/02/21 00:54:32;;;;;;;8.23;3.25;;;7.80;99.90;;;;;;4993922;28;20092;-72
2024/02/21 00:56:58;;;;;;;9.10;3.58;;;7.70;99.90;;;;;;4994752;28;20439;-72
2024/02/21 00:59:23;;;;;;;10.18;2.90;;;7.70;99.90;;;;;;4995152;28;20065;-72
2024/02/21 01:01:49;;;;;;;2.17;1.25;;;7.70;99.90;;;;;;5012170;28;20498;-74
2024/02/21 01:04:15;;;;;;;12.73;1.90;;;7.60;99.90;;;;;;5010624;28;20367;-72
2024/02/21 01:06:43;;;;;;;5.68;2.60;;;7.60;99.90;;;;;;4991332;28;20068;-73
2024/02/21 01:09:11;;;;;;;5.95;2.30;;;7.60;99.90;;;;;;4995316;28;20434;-72
2024/02/21 01:11:37;;;;;;;6.03;2.95;;;7.60;99.90;;;;;;5010178;28;20101;-72
2024/02/21 01:14:02;;;;;;;7.22;1.95;;;7.70;99.90;;;;;;5011395;28;20137;-73
2024/02/21 01:16:28;;;;;;;4.80;1.95;;;7.60;99.90;;;;;;5008243;28;20405;-72
2024/02/21 01:18:54;;;;;;;3.83;2.22;;;7.60;99.90;;;;;;5002802;28;20045;-73
2024/02/21 01:21:20;;;;;;;5.80;1.80;;;7.60;99.90;;;;;;5011541;28;20029;-73
2024/02/21 01:23:45;;;;;;;3.67;1.98;;;7.60;99.90;;;;;;5011587;28;20451;-73
2024/02/21 01:26:13;;;;;;;4.88;3.10;;;7.50;99.90;;;;;;5011346;28;20537;-73
2024/02/21 01:28:40;;;;;;;12.82;2.15;;;7.40;99.90;;;;;;5012095;28;20025;-73
2024/02/21 01:31:06;;;;;;;6.82;1.42;;;7.40;99.90;;;;;;5010580;28;20033;-73
2024/02/21 01:35:59;;;;;;;9.38;2.22;;;7.30;99.90;;;;;;5005999;28;20046;-65
2024/02/21 01:38:25;;;;;;;7.65;2.83;;;7.30;99.90;;;;;;5003870;28;20105;-65
2024/02/21 01:40:51;;;;;;;5.40;2.00;;;7.30;99.90;;;;;;5008712;28;20050;-65
2024/02/21 01:43:20;;;;;;;27.35;2.85;;;7.40;99.90;;;;;;5011250;28;20467;-65
2024/02/21 01:45:50;;;;;;;11.70;1.70;;;7.40;99.90;;;;;;5006327;28;20076;-65
2024/02/21 01:48:21;;;;;;;4.95;2.13;;;7.40;99.90;;;;;;5010300;28;20021;-65
2024/02/21 01:50:48;;;;;;;4.20;2.67;;;7.40;99.90;;;;;;4975433;28;20054;-65
2024/02/21 01:53:19;;;;;;;9.50;2.20;;;7.40;99.90;;;;;;5010043;28;20033;-65
2024/02/21 01:55:49;;;;;;;4.68;1.42;;;7.40;99.90;;;;;;5008397;28;20030;-66
2024/02/21 01:58:19;;;;;;;11.85;3.30;;;7.40;99.90;;;;;;5006951;28;20072;-65
2024/02/21 02:00:47;;;;;;;4.40;1.93;;;7.40;99.90;;;;;;4993491;28;20085;-65
2024/02/21 02:03:17;;;;;;;6.20;1.90;;;7.40;99.90;;;;;;4986275;28;20121;-65
2024/02/21 02:05:49;;;;;;;2.40;1.58;;;7.40;99.90;;;;;;4991314;28;20037;-65
2024/02/21 02:08:22;;;;;;;10.13;2.13;;;7.40;99.90;;;;;;4990820;28;20018;-65
2024/02/21 02:10:48;;;;;;;5.97;1.85;;;7.30;99.90;;;;;;4992227;28;20027;-66
2024/02/21 02:13:14;;;;;;;8.60;1.83;;;7.40;99.90;;;;;;4978598;28;20104;-65
2024/02/21 02:15:50;;;;;;;10.27;2.13;;;7.50;99.90;;;;;;4999094;28;20455;-65
2024/02/21 02:18:18;;;;;;;14.40;2.15;;;7.50;99.90;;;;;;5003540;28;20029;-66
2024/02/21 02:20:45;;;;;;;13.20;2.50;;;7.50;99.90;;;;;;5006625;28;20255;-66
2024/02/21 02:23:25;;;;;;;5.78;1.45;;;7.50;99.90;;;;;;5007038;28;20041;-65
2024/02/21 02:25:54;;;;;;;14.63;1.83;;;7.50;99.90;;;;;;5007530;28;20085;-65
2024/02/21 02:28:21;;;;;;;3.55;2.13;;;7.50;99.90;;;;;;5004893;28;20117;-65
2024/02/21 02:30:48;;;;;;;8.65;2.05;;;7.40;99.90;;;;;;5008293;28;20508;-65
2024/02/21 02:33:13;;;;;;;5.38;1.85;;;7.40;99.90;;;;;;4995686;28;20064;-65
2024/02/21 02:35:42;;;;;;;14.55;2.70;;;7.40;99.90;;;;;;5007220;28;20429;-65
2024/02/21 02:38:08;;;;;;;13.90;1.90;;;7.30;99.90;;;;;;5008623;28;20039;-66
2024/02/21 02:40:34;;;;;;;4.55;2.08;;;7.30;99.90;;;;;;5002677;28;20040;-66
2024/02/21 02:43:01;;;;;;;4.15;1.83;;;7.30;99.90;;;;;;4992310;28;20050;-66
2024/02/21 02:45:26;;;;;;;4.63;1.70;;;7.20;99.90;;;;;;5007599;28;20030;-66
2024/02/21 02:47:56;;;;;;;10.93;2.33;;;7.20;99.90;;;;;;5009214;28;20552;-66
2024/02/21 02:50:24;;;;;;;11.75;1.70;;;7.20;99.90;;;;;;5006778;28;20026;-66
2024/02/21 02:52:49;;;;;;;2.70;1.60;;;7.20;99.90;;;;;;4985465;28;20521;-66
2024/02/21 02:55:16;;;;;;;2.22;1.75;;;7.20;99.90;;;;;;5000892;28;20132;-66
2024/02/21 02:57:42;;;;;;;7.85;2.05;;;7.20;99.90;;;;;;4993336;28;20041;-66
2024/02/21 03:00:12;;;;;;;2.30;1.02;;;7.20;99.90;;;;;;5001426;28;20053;-66
2024/02/21 03:02:40;;;;;;;4.65;1.33;;;7.20;99.90;;;;;;4976279;28;20042;-66
2024/02/21 03:05:20;;;;;;;5.13;2.03;;;7.30;99.90;;;;;;5004249;28;20389;-66
2024/02/21 03:07:47;;;;;;;3.97;2.10;;;7.30;99.90;;;;;;5001795;28;20030;-66
2024/02/21 03:10:13;;;;;;;2.70;1.30;;;7.30;99.90;;;;;;5013075;28;20102;-66
2024/02/21 03:12:40;;;;;;;11.68;3.20;;;7.30;99.90;;;;;;5012721;28;20021;-66
2024/02/21 03:15:06;;;;;;;7.10;3.53;;;7.20;99.90;;;;;;5001607;28;20647;-66
2024/02/21 03:17:34;;;;;;;2.15;1.38;;;7.20;99.90;;;;;;4989117;28;20041;-67
2024/02/21 03:20:01;;;;;;;13.20;1.67;;;7.10;99.90;;;;;;4998185;28;20088;-66
2024/02/21 03:22:27;;;;;;;5.10;1.80;;;7.10;99.90;;;;;;4986755;28;20031;-66
2024/02/21 03:24:53;;;;;;;8.35;1.90;;;7.10;99.90;;;;;;4998767;28;20033;-66
2024/02/21 03:27:19;;;;;;;3.25;1.85;;;7.10;99.90;;;;;;4974737;28;20034;-66
2024/02/21 03:29:45;;;;;;;13.50;3.30;;;7.10;99.90;;;;;;5012782;28;20040;-66
2024/02/21 03:32:11;;;;;;;4.07;2.55;;;7.20;99.90;;;;;;4999145;28;20022;-66
2024/02/21 03:34:36;;;;;;;5.68;2.08;;;7.20;99.90;;;;;;4986070;28;20091;-66
2024/02/21 03:37:02;;;;;;;12.02;2.55;;;7.20;99.90;;;;;;4978889;28;20138;-67
2024/02/21 03:39:32;;;;;;;3.20;1.60;;;7.10;99.90;;;;;;5001281;28;20124;-67
2024/02/21 03:42:00;;;;;;;11.45;2.05;;;7.10;99.90;;;;;;4998173;28;20034;-67
2024/02/21 03:44:27;;;;;;;3.63;1.92;;;7.00;99.90;;;;;;5008045;28;20018;-67
2024/02/21 03:46:52;;;;;;;1.83;1.58;;;7.00;99.90;;;;;;5011811;28;20033;-67
2024/02/21 03:49:18;;;;;;;3.28;1.85;;;7.00;99.90;;;;;;5003446;28;20030;-66
2024/02/21 03:51:44;;;;;;;7.25;2.25;;;7.00;99.90;;;;;;5006469;28;20040;-67
2024/02/21 03:54:10;;;;;;;7.43;1.48;;;7.00;99.90;;;;;;5010607;28;20483;-67
2024/02/21 03:56:39;;;;;;;7.45;2.10;;;7.00;99.90;;;;;;5001044;28;20405;-67
2024/02/21 03:59:09;;;;;;;3.78;1.63;;;7.10;99.90;;;;;;5005924;28;20034;-66
2024/02/21 04:01:35;;;;;;;4.28;2.03;;;7.20;99.90;;;;;;4999066;28;20030;-67
2024/02/21 04:04:01;;;;;;;2.95;2.42;;;7.20;99.90;;;;;;5008502;28;20034;-66
2024/02/21 04:06:28;;;;;;;7.10;2.25;;;7.20;99.90;;;;;;5001395;28;20022;-67
2024/02/21 04:08:54;;;;;;;5.75;1.75;;;7.30;99.90;;;;;;4981176;28;20053;-66
2024/02/21 04:11:19;;;;;;;5.10;2.42;;;7.40;99.90;;;;;;5013657;28;20411;-67
2024/02/21 04:13:48;;;;;;;2.88;1.63;;;7.30;99.90;;;;;;4989428;28;20022;-67
2024/02/21 04:16:15;;;;;;;2.78;2.22;;;7.40;99.90;;;;;;4989293;28;20041;-67
2024/02/21 04:18:41;;;;;;;2.78;1.58;;;7.50;99.90;;;;;;5011269;28;20117;-67
2024/02/21 04:21:07;;;;;;;15.88;2.95;;;7.50;99.90;;;;;;5002537;28;20029;-66
2024/02/21 04:23:33;;;;;;;6.63;2.40;;;7.40;99.90;;;;;;5002811;28;20074;-67
2024/02/21 04:25:59;;;;;;;2.60;1.88;;;7.40;99.90;;;;;;5011246;28;20033;-67
2024/02/21 04:28:25;;;;;;;10.88;3.53;;;7.50;99.90;;;;;;5013269;28;20020;-66
2024/02/21 04:30:50;;;;;;;5.07;2.65;;;7.50;99.90;;;;;;4993942;28;20036;-66
2024/02/21 04:33:16;;;;;;;7.30;1.70;;;7.40;99.90;;;;;;4997469;28;20040;-66
2024/02/21 04:35:42;;;;;;;5.68;2.38;;;7.30;99.90;;;;;;5015798;28;20113;-66
2024/02/21 04:38:08;;;;;;;3.13;1.30;;;7.20;99.90;;;;;;5013188;28;20395;-66
2024/02/21 04:40:33;;;;;;;1.30;1.13;;;7.20;99.90;;;;;;5009959;28;20097;-66
2024/02/21 04:42:59;;;;;;;7.43;2.33;;;7.10;99.90;;;;;;4992135;28;20106;-66
2024/02/21 04:45:25;;;;;;;2.25;1.48;;;7.00;99.90;;;;;;4996804;28;20038;-66
2024/02/21 04:47:51;;;;;;;6.15;1.67;;;7.00;99.90;;;;;;4974061;28;20338;-66
2024/02/21 04:50:16;;;;;;;6.03;2.40;;;6.90;99.90;;;;;;4989782;28;20034;-66
2024/02/21 04:52:43;;;;;;;7.85;1.95;;;6.80;99.90;;;;;;4994252;28;20109;-66
2024/02/21 04:55:09;;;;;;;3.35;1.65;;;6.80;99.90;;;;;;4986876;28;20492;-66
2024/02/21 04:57:34;;;;;;;17.05;2.03;;;6.70;99.90;;;;;;4995853;28;20035;-66
2024/02/21 05:00:00;;;;;;;5.70;2.30;;;6.60;99.90;;;;;;5006740;28;20164;-66
2024/02/21 05:02:26;;;;;;;2.80;1.95;;;6.60;99.90;;;;;;5003833;28;20029;-66
2024/02/21 05:04:53;;;;;;;3.35;1.95;;;6.50;99.90;;;;;;5003914;28;20521;-66
2024/02/21 05:07:19;;;;;;;10.18;3.03;;;6.60;99.90;;;;;;5012645;28;20116;-66
2024/02/21 05:09:45;;;;;;;3.28;2.35;;;6.50;99.90;;;;;;5007283;28;20038;-66
2024/02/21 05:12:11;;;;;;;11.57;3.33;;;6.50;99.90;;;;;;5011867;28;20037;-66
2024/02/21 05:14:37;;;;;;;4.75;1.90;;;6.50;99.90;;;;;;4995116;28;20506;-66
2024/02/21 05:17:04;;;;;;;2.17;1.67;;;6.60;99.90;;;;;;5008836;28;20113;-66
2024/02/21 05:19:30;;;;;;;6.05;1.95;;;6.60;99.90;;;;;;5004525;28;20030;-66
2024/02/21 05:21:56;;;;;;;2.25;1.40;;;6.70;99.90;;;;;;4985918;28;20501;-66
2024/02/21 05:24:21;;;;;;;6.70;2.10;;;6.80;99.90;;;;;;5008583;28;20033;-66
2024/02/21 05:26:47;;;;;;;5.60;2.47;;;6.80;99.90;;;;;;5012364;28;20022;-66
2024/02/21 05:29:13;;;;;;;2.90;1.60;;;6.70;99.90;;;;;;4991548;28;20033;-66
2024/02/21 05:31:51;;;;;;;6.80;2.35;;;6.70;99.90;;;;;;4998181;28;20027;-66
2024/02/21 05:34:17;;;;;;;3.13;2.00;;;6.70;99.90;;;;;;4998410;28;20425;-66
2024/02/21 05:36:43;;;;;;;1.63;1.23;;;6.70;99.90;;;;;;4990345;28;20106;-66
2024/02/21 05:39:09;;;;;;;2.25;1.35;;;6.60;99.90;;;;;;4994772;28;20109;-67
2024/02/21 05:41:35;;;;;;;9.93;3.03;;;6.50;99.90;;;;;;4991843;28;20616;-67
2024/02/21 05:44:01;;;;;;;8.52;1.52;;;6.40;99.90;;;;;;4993181;28;20034;-66
2024/02/21 05:46:27;;;;;;;4.93;1.80;;;6.30;99.90;;;;;;4996603;28;20455;-66
2024/02/21 05:48:53;;;;;;;4.85;1.25;;;6.30;99.90;;;;;;5009900;28;20046;-67
2024/02/21 05:51:19;;;;;;;4.47;1.67;;;6.30;99.90;;;;;;5010230;28;20034;-67
2024/02/21 05:53:45;;;;;;;5.55;2.38;;;6.20;99.90;;;;;;5008262;28;20030;-67
2024/02/21 05:56:12;;;;;;;7.88;1.55;;;6.20;99.90;;;;;;5011360;28;20034;-68
2024/02/21 05:58:38;;;;;;;1.85;1.17;;;6.10;99.90;;;;;;5000773;28;20030;-66
2024/02/21 06:01:05;;;;;;;5.03;2.53;;;6.10;99.90;;;;;;5001422;28;20244;-65
2024/02/21 06:03:31;;;;;;;5.10;1.90;;;6.10;99.90;;;;;;4991443;28;20105;-66
2024/02/21 06:05:56;;;;;;;11.95;1.83;;;6.00;99.90;;;;;;4991208;28;20173;-66
2024/02/21 06:08:22;;;;;;;2.95;1.75;;;6.00;99.90;;;;;;4994694;28;20022;-65
2024/02/21 06:10:48;;;;;;;5.03;2.17;;;5.90;99.90;;;;;;5006373;28;20033;-64
2024/02/21 06:13:14;;;;;;;5.07;2.80;;;5.90;99.90;;;;;;4991222;28;20099;-65
2024/02/21 06:15:40;;;;;;;11.88;2.80;;;5.90;99.90;;;;;;4991813;28;20483;-64
2024/02/21 06:18:06;;;;;;;9.95;1.55;;;5.80;99.90;;;;;;4992592;28;20085;-65
2024/02/21 06:20:32;;;;;;;2.50;2.30;;;5.90;99.90;;;;;;5008456;28;20029;-65
2024/02/21 06:22:57;;;;;;;3.40;1.25;;;5.90;99.90;;;;;;4993031;28;20039;-65
2024/02/21 06:25:23;;;;;;;5.00;1.83;;;5.90;99.90;;;;;;4999901;28;20029;-66
2024/02/21 06:27:49;;;;;;;7.30;2.53;;;6.00;99.90;;;;;;4987626;28;20022;-65
2024/02/21 06:30:15;;;;;;;2.53;1.48;;;5.90;99.90;;;;;;4996202;28;20033;-66
2024/02/21 06:32:40;;;;;;;2.40;1.60;;;5.90;99.90;;;;;;4998674;28;20030;-65
2024/02/21 06:35:06;;;;;;;6.82;3.17;;;5.90;99.90;;;;;;5007099;28;20144;-65
2024/02/21 06:37:32;;;;;;;8.98;2.13;;;5.90;99.90;;;;;;4996569;28;20124;-65
2024/02/21 06:39:58;;;;;;;5.13;2.75;;;5.90;99.90;;;;;;5005989;28;20038;-65
2024/02/21 06:42:27;;;;;;;15.98;7.20;;;5.90;99.90;;;;;;5002978;28;20031;-67
2024/02/21 06:44:53;;;;;;;10.80;1.77;;;5.90;99.90;;;;;;4994330;28;20029;-65
2024/02/21 06:47:18;;;;;;;2.03;1.55;;;5.80;99.90;;;;;;4973718;28;20097;-65
2024/02/21 06:49:50;;;;;;;5.25;2.25;;;5.80;99.90;;;;;;4997558;28;20138;-65
2024/02/21 06:52:20;;;;;;;4.85;2.65;;;5.80;99.90;;;;;;5014154;28;20045;-65
2024/02/21 06:54:49;;;;;;;1.77;1.40;;;5.80;99.90;;;;;;5013015;28;20471;-66
2024/02/21 06:57:17;;;;;;;5.10;1.88;;;5.80;99.90;;;;;;5014727;28;20493;-66
2024/02/21 06:59:43;;;;;;;4.70;2.22;;;5.80;99.90;;;;;;5004788;28;20068;-69
2024/02/21 07:02:09;;;;;;;3.97;1.67;;;5.90;99.90;;;;;;4999581;28;20497;-66
2024/02/21 07:04:35;;;;;;;7.68;4.00;;;6.00;99.90;;;;;;5009709;28;20026;-66
2024/02/21 07:07:01;;;;;;;9.13;3.00;;;6.00;99.90;;;;;;5006699;28;20129;-66
2024/02/21 07:09:28;;;;;;;19.55;3.58;;;6.00;99.90;;;;;;5002074;28;20079;-67
2024/02/21 07:11:54;;;;;;;5.30;2.47;;;6.00;99.90;;;;;;5012688;28;20138;-66
2024/02/21 07:14:20;;;;;;;1.58;1.33;;;6.10;99.90;;;;;;5004541;28;20157;-56
2024/02/21 07:16:45;;;;;;;3.95;2.05;;;6.20;99.90;;;;;;5005215;28;20484;-52
2024/02/21 07:19:11;;;;;;;6.13;2.70;;;6.20;99.90;;;;;;5012469;28;20529;-54
2024/02/21 07:21:42;;;;;;;2.55;2.03;;;6.20;99.90;;;;;;5014112;28;20030;-54
2024/02/21 07:24:08;;;;;;;10.83;1.70;;;6.20;99.90;;;;;;5011072;28;20545;-53
2024/02/21 07:26:34;;;;;;;5.03;2.50;;;6.30;99.90;;;;;;5014263;28;20022;-52
2024/02/21 07:29:00;;;;;;;5.85;3.45;;;6.30;99.90;;;;;;5004555;28;20509;-49
2024/02/21 07:31:26;;;;;;;17.10;3.30;;;6.30;99.90;;;;;;5005528;28;20038;-55
2024/02/21 07:33:51;;;;;;;9.98;3.10;;;6.40;99.90;;;;;;5018294;22;20127;-54
2024/02/21 07:36:29;;;;;;;20.98;4.03;;;6.40;99.90;;;;;;4992194;28;20035;-68
2024/02/21 07:38:55;;;;;;;7.15;2.03;;;6.50;99.90;;;;;;4972997;28;20486;-68
2024/02/21 07:41:21;;;;;;;27.27;3.13;;;6.60;99.90;;;;;;4988898;28;20108;-68
2024/02/21 07:43:48;;;;;;;7.35;2.35;;;6.60;99.90;;;;;;4975708;28;20031;-68
2024/02/21 07:46:14;;;;;;;4.03;3.00;;;6.70;99.90;;;;;;4974976;28;20129;-68
2024/02/21 07:48:40;;;;;;;6.05;2.28;;;6.70;99.90;;;;;;4983599;28;20026;-67
2024/02/21 07:51:06;;;;;;;4.22;2.75;;;6.70;99.90;;;;;;5000651;28;20090;-67
2024/02/21 07:53:31;;;;;;;5.45;2.58;;;6.90;99.90;;;;;;4977877;28;20030;-68
2024/02/21 07:55:57;;;;;;;9.35;4.25;;;6.90;99.90;;;;;;4981973;28;20074;-69
2024/02/21 07:58:23;;;;;;;3.40;2.17;;;7.00;99.90;;;;;;4980778;28;20093;-68
2024/02/21 08:00:49;;;;;;;5.13;2.10;;;7.10;99.90;;;;;;4988343;28;20110;-68
2024/02/21 08:03:17;;;;;;;11.38;3.40;;;7.20;99.90;;;;;;4974033;28;20026;-68
2024/02/21 08:05:44;;;;;;;9.48;2.28;;;7.20;99.90;;;;;;4973438;28;20038;-68
2024/02/21 08:08:09;;;;;;;16.13;3.97;;;7.20;99.90;;;;;;4973246;28;20073;-68
2024/02/21 08:10:35;;;;;;;3.78;2.17;;;7.20;99.90;;;;;;4973542;28;20459;-68
2024/02/21 08:13:01;;;;;;;4.43;2.15;;;7.10;99.90;;;;;;4974160;28;20049;-68
2024/02/21 08:15:29;;;;;;;5.35;2.25;;;7.20;99.90;;;;;;4973040;28;20034;-68
2024/02/21 08:18:03;;;;;;;15.35;2.55;;;7.20;99.90;;;;;;4974386;28;20119;-68
2024/02/21 08:20:29;;;;;;;3.95;1.40;;;7.20;99.90;;;;;;4971866;28;20085;-68
2024/02/21 08:22:55;;;;;;;3.90;2.83;;;7.20;99.90;;;;;;4973432;28;20102;-68
2024/02/21 08:25:20;;;;;;;10.52;2.60;;;7.20;99.90;;;;;;4972713;28;20118;-68
2024/02/21 08:27:46;;;;;;;6.93;2.35;;;7.20;99.90;;;;;;4973807;28;20476;-68
2024/02/21 08:30:12;;;;;;;2.03;1.70;;;7.20;99.90;;;;;;4970066;28;20573;-69
2024/02/21 08:32:38;;;;;;;3.60;2.25;;;7.30;99.90;;;;;;4973698;28;20030;-68
2024/02/21 08:35:05;;;;;;;8.32;3.08;;;7.30;99.90;;;;;;4972367;28;20431;-68
2024/02/21 08:37:31;;;;;;;6.13;2.58;;;7.20;99.90;;;;;;4972553;28;20400;-68
2024/02/21 08:39:56;;;;;;;5.25;1.98;;;7.30;99.90;;;;;;4971573;28;20061;-68
2024/02/21 08:42:22;;;;;;;6.63;3.20;;;7.40;99.90;;;;;;4972737;28;20034;-68
2024/02/21 08:44:49;;;;;;;5.72;2.20;;;7.40;99.90;;;;;;4971497;28;20074;-69
2024/02/21 08:47:14;;;;;;;6.00;2.22;;;7.50;99.90;;;;;;4972927;28;20042;-67
2024/02/21 08:49:40;;;;;;;6.95;2.72;;;7.50;99.90;;;;;;4972459;28;20027;-67
2024/02/21 08:52:06;;;;;;;10.52;3.13;;;7.50;99.90;;;;;;4973024;28;20027;-67
2024/02/21 08:54:33;;;;;;;6.03;3.15;;;7.50;99.90;;;;;;4971329;28;20034;-68
2024/02/21 08:56:58;;;;;;;5.85;2.42;;;7.70;99.90;;;;;;4973115;28;20031;-68
2024/02/21 08:59:26;;;;;;;8.15;3.20;;;7.80;99.90;;;;;;4971843;28;20027;-68
2024/02/21 09:01:55;;;;;;;9.23;1.73;;;7.80;99.90;;;;;;4973065;28;20039;-68
2024/02/21 09:04:20;;;;;;;2.90;1.65;;;7.90;99.90;;;;;;4967538;28;20395;-68
2024/02/21 09:06:46;;;;;;;3.63;1.92;;;7.90;99.90;;;;;;4972782;28;20035;-68
2024/02/21 09:09:12;;;;;;;4.50;1.65;;;8.10;99.90;;;;;;4970542;28;20493;-67
2024/02/21 09:11:39;;;;;;;6.03;1.33;;;8.10;99.90;;;;;;4972647;28;20023;-68
2024/02/21 09:14:05;;;;;;;6.82;1.63;;;8.20;99.90;;;;;;4971482;28;20479;-67
2024/02/21 09:16:32;;;;;;;4.05;2.22;;;8.20;99.90;;;;;;4977858;28;20038;-68
2024/02/21 09:18:58;;;;;;;8.48;2.20;;;8.40;99.90;;;;;;4972561;28;20105;-68
2024/02/21 09:21:24;;;;;;;5.40;2.88;;;8.50;99.90;;;;;;4972261;28;20026;-69
2024/02/21 09:23:50;;;;;;;11.70;2.75;;;8.50;99.90;;;;;;4970888;28;20082;-69
2024/02/21 09:26:16;;;;;;;5.93;1.52;;;8.60;99.90;;;;;;4972156;28;20031;-69
2024/02/21 09:28:45;;;;;;;4.97;1.80;;;8.80;99.90;;;;;;4971753;28;20026;-68
2024/02/21 09:31:11;;;;;;;3.08;1.88;;;9.00;99.90;;;;;;4970660;28;20395;-69
2024/02/21 09:33:37;;;;;;;2.70;1.25;;;9.00;99.90;;;;;;4973152;28;20046;-68
2024/02/21 09:36:05;;;;;;;4.20;1.40;;;9.20;99.90;;;;;;4970910;28;20042;-69
2024/02/21 09:38:32;;;;;;;3.35;1.98;;;9.30;99.90;;;;;;4971691;28;20037;-69
2024/02/21 09:41:27;;;;;;;6.43;3.25;;;9.30;99.90;;;;;;4970566;28;20482;-69
2024/02/21 09:43:54;;;;;;;4.35;2.63;;;9.50;99.90;;;;;;4964646;28;20141;-69
2024/02/21 09:46:41;;;;;;;5.70;1.83;;;9.60;99.90;;;;;;4969385;28;20114;-69
2024/02/21 09:49:32;;;;;;;4.13;1.98;;;9.70;99.90;;;;;;4972119;28;20181;-69
2024/02/21 09:52:02;;;;;;;15.63;2.78;;;9.80;99.90;;;;;;4971817;28;20023;-69
2024/02/21 09:54:32;;;;;;;3.33;1.70;;;9.80;99.90;;;;;;4972919;28;20026;-69
2024/02/21 09:56:59;;;;;;;7.32;1.90;;;10.00;99.90;;;;;;4972176;28;20031;-68
2024/02/21 09:59:27;;;;;;;5.93;2.05;;;10.10;99.90;;;;;;4971253;28;20029;-68
2024/02/21 10:01:53;;;;;;;5.28;2.40;;;10.20;99.90;;;;;;4970829;28;20041;-68
2024/02/21 10:04:20;;;;;;;6.88;2.78;;;10.00;99.90;;;;;;4970326;28;20031;-68
2024/02/21 10:06:46;;;;;;;4.47;1.67;;;10.30;99.90;;;;;;4971979;28;20494;-68
2024/02/21 10:09:29;;;;;;;1.52;1.17;;;10.30;99.90;;;;;;4985962;28;20323;-68
2024/02/21 10:11:56;;;;;;;4.53;1.17;;;10.20;99.90;;;;;;4960445;28;20399;-68
2024/02/21 10:14:22;;;;;;;2.83;1.33;;;10.30;99.90;;;;;;4965359;28;20039;-69
2024/02/21 10:16:58;;;;;;;11.45;1.85;;;10.50;99.90;;;;;;4971998;28;20057;-68
2024/02/21 10:19:23;;;;;;;2.67;1.27;;;10.30;99.90;;;;;;4987577;28;20030;-68
2024/02/21 10:22:08;;;;;;;5.05;1.40;;;10.40;99.90;;;;;;4975728;28;20050;-68
2024/02/21 10:24:38;;;;;;;8.90;2.78;;;10.40;99.90;;;;;;4972690;28;20475;-68
2024/02/21 10:27:08;;;;;;;2.85;1.85;;;10.60;99.90;;;;;;4975681;28;20042;-68
2024/02/21 10:29:35;;;;;;;4.77;1.83;;;10.60;99.90;;;;;;4975578;28;20034;-73
2024/02/21 10:32:12;;;;;;;7.07;1.30;;;10.40;99.90;;;;;;4973921;28;20031;-72
2024/02/21 10:34:39;;;;;;;2.00;0.70;;;10.30;99.90;;;;;;4973986;28;20038;-68
2024/02/21 10:37:07;;;;;;;4.60;1.67;;;10.30;99.90;;;;;;4982870;28;20041;-68
2024/02/21 10:39:39;;;;;;;4.18;1.02;;;10.30;99.90;;;;;;4974702;28;20132;-69
2024/02/21 10:42:05;;;;;;;8.30;1.65;;;10.70;99.90;;;;;;4979793;28;20030;-67
2024/02/21 10:44:36;;;;;;;3.22;1.85;;;10.80;99.90;;;;;;4974447;28;20068;-69
2024/02/21 10:47:08;;;;;;;2.90;1.40;;;10.60;99.90;;;;;;4975510;28;20185;-67
2024/02/21 10:49:47;;;;;;;6.70;1.92;;;10.80;99.90;;;;;;4974279;28;20089;-68
2024/02/21 10:52:24;;;;;;;8.85;1.70;;;10.90;99.90;;;;;;4988977;28;20031;-70
2024/02/21 10:55:02;;;;;;;1.27;0.90;;;10.90;99.90;;;;;;4978266;28;20133;-68
2024/02/21 10:57:31;;;;;;;3.00;1.15;;;11.20;99.90;;;;;;4974171;28;20084;-67
2024/02/21 10:59:59;;;;;;;3.92;1.15;;;11.30;99.90;;;;;;4978022;28;20046;-68
2024/02/21 11:02:28;;;;;;;1.40;0.77;;;11.20;99.90;;;;;;4990003;28;20041;-68
2024/02/21 11:04:55;;;;;;;4.80;1.63;;;11.40;99.90;;;;;;4973639;28;20034;-68
2024/02/21 11:07:21;;;;;;;1.27;1.15;;;11.30;99.90;;;;;;4974346;28;20027;-67
2024/02/21 11:09:57;;;;;;;5.75;0.90;;;11.30;99.90;;;;;;4973561;28;20046;-68
2024/02/21 11:12:24;;;;;;;3.33;1.00;;;11.30;99.90;;;;;;4977425;28;20137;-68
2024/02/21 11:14:49;;;;;;;0.90;0.60;;;11.50;99.90;;;;;;4973144;28;20031;-69
2024/02/21 11:17:17;;;;;;;6.72;1.08;;;11.30;99.90;;;;;;4975111;28;20035;-67
2024/02/21 11:19:43;;;;;;;6.05;2.00;;;11.20;99.90;;;;;;4977652;28;20085;-68
2024/02/21 11:22:22;;;;;;;2.78;0.93;;;11.00;99.90;;;;;;4989996;28;20031;-68
2024/02/21 11:24:48;;;;;;;5.15;1.52;;;11.10;99.90;;;;;;4975843;28;20102;-68
2024/02/21 11:27:24;;;;;;;2.58;1.45;;;11.30;99.90;;;;;;4973762;28;20480;-68
2024/02/21 11:29:56;;;;;;;1.95;0.88;;;11.40;99.90;;;;;;4972659;28;20046;-68
2024/02/21 11:32:22;;;;;;;3.70;1.33;;;11.50;99.90;;;;;;4972699;28;20110;-68
2024/02/21 11:35:01;;;;;;;3.90;1.83;;;11.30;99.90;;;;;;4972199;28;20070;-67
2024/02/21 11:37:29;;;;;;;2.58;1.45;;;11.10;99.90;;;;;;4972894;28;20030;-69
2024/02/21 11:39:57;;;;;;;7.55;1.00;;;11.30;99.90;;;;;;4973265;28;20055;-69
2024/02/21 11:42:29;;;;;;;3.08;0.95;;;11.50;99.90;;;;;;4971422;28;20030;-67
2024/02/21 11:44:56;;;;;;;2.33;1.35;;;11.50;99.90;;;;;;4973076;28;20099;-67
2024/02/21 11:47:23;;;;;;;2.30;1.30;;;11.50;99.90;;;;;;4971045;28;20484;-67
2024/02/21 11:49:53;;;;;;;11.10;2.15;;;11.40;99.90;;;;;;4988009;28;20077;-68
2024/02/21 11:52:27;;;;;;;2.20;1.02;;;11.30;99.90;;;;;;4974967;28;20027;-68
2024/02/21 11:54:54;;;;;;;3.60;0.93;;;11.40;99.90;;;;;;4972150;28;20110;-68
2024/02/21 11:57:20;;;;;;;3.10;1.75;;;11.50;99.90;;;;;;4973892;28;20093;-68
2024/02/21 11:59:47;;;;;;;1.58;0.80;;;11.50;99.90;;;;;;4987181;28;20588;-67
2024/02/21 12:02:13;;;;;;;1.38;0.93;;;11.20;99.90;;;;;;4974000;28;20122;-67
2024/02/21 12:04:39;;;;;;;3.63;0.65;;;11.30;99.90;;;;;;4967938;28;20368;-68
2024/02/21 12:07:06;;;;;;;2.10;0.98;;;11.30;99.90;;;;;;4979697;28;20037;-68
2024/02/21 12:09:34;;;;;;;5.93;2.00;;;11.50;99.90;;;;;;4975874;28;20034;-68
2024/02/21 12:12:05;;;;;;;1.67;0.85;;;11.60;99.90;;;;;;4972569;28;20045;-68
2024/02/21 12:14:35;;;;;;;3.88;0.90;;;11.30;99.90;;;;;;4972645;28;20030;-68
2024/02/21 12:17:04;;;;;;;5.93;1.48;;;11.30;99.90;;;;;;4974296;28;20418;-68
2024/02/21 12:19:34;;;;;;;14.98;1.77;;;11.40;99.90;;;;;;4970651;28;20037;-68
2024/02/21 12:22:00;;;;;;;9.23;3.08;;;11.20;99.90;;;;;;4973457;28;20161;-68
2024/02/21 12:24:28;;;;;;;2.25;1.15;;;11.20;99.90;;;;;;4972177;28;20487;-68
2024/02/21 12:26:56;;;;;;;1.75;0.52;;;11.30;99.90;;;;;;4978857;28;20467;-68
2024/02/21 12:29:26;;;;;;;1.33;0.90;;;11.20;99.90;;;;;;4981138;28;20030;-68
2024/02/21 12:31:53;;;;;;;8.30;0.90;;;11.30;99.90;;;;;;4981111;28;20058;-68
2024/02/21 12:34:19;;;;;;;1.13;0.32;;;11.40;99.90;;;;;;4970421;28;20018;-68
2024/02/21 12:36:49;;;;;;;2.85;1.00;;;11.50;99.90;;;;;;4974415;28;20085;-68
2024/02/21 12:39:15;;;;;;;4.78;0.50;;;11.40;99.90;;;;;;4973287;28;20030;-68
2024/02/21 12:41:44;;;;;;;7.88;1.42;;;11.50;99.90;;;;;;4972455;28;20030;-68
2024/02/21 12:44:14;;;;;;;2.05;0.88;;;11.60;99.90;;;;;;4972057;28;20034;-68
2024/02/21 12:46:40;;;;;;;2.75;0.88;;;11.40;99.90;;;;;;4967680;28;20058;-68
2024/02/21 12:49:07;;;;;;;11.55;1.23;;;11.50;99.90;;;;;;4972790;28;20066;-69
2024/02/21 12:51:34;;;;;;;5.55;1.98;;;11.60;99.90;;;;;;4972996;28;20671;-69
2024/02/21 12:54:00;;;;;;;3.28;1.13;;;11.60;99.90;;;;;;4978032;28;20041;-68
2024/02/21 12:56:30;;;;;;;5.13;1.25;;;11.30;99.90;;;;;;4972069;28;20050;-68